Time,TemperatureF,DewpointF,PressureIn,WindDirection,WindDirectionDegrees,WindSpeedMPH,WindSpeedGustMPH,Humidity,HourlyPrecipIn,Conditions,Clouds,dailyrainin,SoftwareType,DateUTC
2013-05-20 00:07:00,66.9,66.0,29.96,SSE,157,2.2,-999.0,97,-99.99,,,0.00,Acu-Link.com,2013-05-20 04:07:00,
2013-05-20 00:22:00,66.9,66.3,29.96,ESE,112,1.1,-999.0,98,-99.99,,,0.00,Acu-Link.com,2013-05-20 04:22:00,
2013-05-20 00:37:00,66.9,66.3,29.95,ESE,112,3.7,-999.0,98,-99.99,,,0.00,Acu-Link.com,2013-05-20 04:37:00,
2013-05-20 00:52:00,66.9,66.3,29.95,SE,135,2.2,-999.0,98,-99.99,,,0.00,Acu-Link.com,2013-05-20 04:52:00,
2013-05-20 01:07:00,66.7,66.1,29.94,SE,135,3.7,-999.0,98,-99.99,,,0.00,Acu-Link.com,2013-05-20 05:07:00,
2013-05-20 01:22:00,66.4,66.1,29.93,South,180,0.0,-999.0,99,-99.99,,,0.00,Acu-Link.com,2013-05-20 05:22:00,
2013-05-20 01:37:00,66.0,65.7,29.93,ESE,112,1.7,-999.0,99,-99.99,,,0.00,Acu-Link.com,2013-05-20 05:37:00,
2013-05-20 01:53:00,65.8,65.5,29.92,ESE,112,3.2,-999.0,99,-99.99,,,0.00,Acu-Link.com,2013-05-20 05:53:00,
2013-05-20 02:08:00,65.5,65.2,29.91,ESE,112,2.2,-999.0,99,-99.99,,,0.00,Acu-Link.com,2013-05-20 06:08:00,
2013-05-20 02:23:00,65.1,64.8,29.91,ESE,112,1.7,-999.0,99,-99.99,,,0.00,Acu-Link.com,2013-05-20 06:23:00,
2013-05-20 02:38:00,64.8,64.5,29.91,ESE,112,0.0,-999.0,99,-99.99,,,0.00,Acu-Link.com,2013-05-20 06:38:00,
2013-05-20 02:53:00,64.6,64.3,29.90,ESE,112,1.7,-999.0,99,-99.99,,,0.00,Acu-Link.com,2013-05-20 06:53:00,
2013-05-20 03:08:00,64.6,64.3,29.90,East,90,1.7,-999.0,99,-99.99,,,0.00,Acu-Link.com,2013-05-20 07:08:00,
2013-05-20 03:23:00,64.2,63.9,29.90,ESE,112,0.0,-999.0,99,-99.99,,,0.00,Acu-Link.com,2013-05-20 07:23:00,
2013-05-20 03:38:00,63.9,63.6,29.89,SSE,157,1.7,-999.0,99,-99.99,,,0.00,Acu-Link.com,2013-05-20 07:38:00,
2013-05-20 03:53:00,63.5,63.2,29.90,ESE,112,0.0,-999.0,99,-99.99,,,0.00,Acu-Link.com,2013-05-20 07:53:00,
2013-05-20 04:09:00,63.3,63.0,29.90,South,180,0.0,-999.0,99,-99.99,,,0.00,Acu-Link.com,2013-05-20 08:09:00,
2013-05-20 04:24:00,63.0,62.7,29.91,SW,225,0.0,-999.0,99,-99.99,,,0.00,Acu-Link.com,2013-05-20 08:24:00,
2013-05-20 04:39:00,62.6,62.3,29.90,WNW,292,0.0,-999.0,99,-99.99,,,0.00,Acu-Link.com,2013-05-20 08:39:00,
2013-05-20 04:54:00,62.2,61.9,29.90,SW,225,0.0,-999.0,99,-99.99,,,0.00,Acu-Link.com,2013-05-20 08:54:00,
2013-05-20 05:10:00,62.1,61.8,29.90,North,0,0.0,-999.0,99,-99.99,,,0.00,Acu-Link.com,2013-05-20 09:10:00,
2013-05-20 05:25:00,61.3,61.0,29.91,SSW,202,0.0,-999.0,99,-99.99,,,0.00,Acu-Link.com,2013-05-20 09:25:00,
2013-05-20 05:40:00,61.2,60.9,29.90,North,0,0.0,-999.0,99,-99.99,,,0.00,Acu-Link.com,2013-05-20 09:40:00,
2013-05-20 05:55:00,61.0,60.7,29.91,SSW,202,0.0,-999.0,99,-99.99,,,0.00,Acu-Link.com,2013-05-20 09:55:00,
2013-05-20 06:10:00,61.2,60.9,29.92,NW,315,0.0,-999.0,99,-99.99,,,0.00,Acu-Link.com,2013-05-20 10:10:00,
2013-05-20 06:25:00,61.9,61.6,29.93,WSW,247,0.0,-999.0,99,-99.99,,,0.00,Acu-Link.com,2013-05-20 10:25:00,
2013-05-20 06:40:00,62.1,61.8,29.93,NNW,337,0.0,-999.0,99,-99.99,,,0.00,Acu-Link.com,2013-05-20 10:40:00,
2013-05-20 06:55:00,62.6,62.3,29.94,South,180,0.0,-999.0,99,-99.99,,,0.00,Acu-Link.com,2013-05-20 10:55:00,
2013-05-20 07:10:00,64.8,64.5,29.93,SE,135,1.7,-999.0,99,-99.99,,,0.00,Acu-Link.com,2013-05-20 11:10:00,
2013-05-20 07:26:00,64.9,64.6,29.93,SSE,157,0.0,-999.0,99,-99.99,,,0.00,Acu-Link.com,2013-05-20 11:26:00,
2013-05-20 07:41:00,65.5,65.2,29.93,NNW,337,0.0,-999.0,99,-99.99,,,0.00,Acu-Link.com,2013-05-20 11:41:00,
2013-05-20 07:56:00,68.7,68.1,29.93,NNE,22,0.0,-999.0,98,-99.99,,,0.00,Acu-Link.com,2013-05-20 11:56:00,
2013-05-20 08:11:00,69.4,67.9,29.94,ESE,112,2.2,-999.0,95,-99.99,,,0.00,Acu-Link.com,2013-05-20 12:11:00,
2013-05-20 08:26:00,70.5,68.7,29.93,East,90,1.7,-999.0,94,-99.99,,,0.00,Acu-Link.com,2013-05-20 12:26:00,
2013-05-20 08:41:00,72.0,68.6,29.94,NNW,337,1.7,-999.0,89,-99.99,,,0.00,Acu-Link.com,2013-05-20 12:41:00,
2013-05-20 08:56:00,71.8,68.7,29.94,NNW,337,0.0,-999.0,90,-99.99,,,0.00,Acu-Link.com,2013-05-20 12:56:00,
2013-05-20 09:11:00,75.6,70.4,29.93,ESE,112,2.2,-999.0,84,-99.99,,,0.00,Acu-Link.com,2013-05-20 13:11:00,
2013-05-20 09:26:00,77.2,70.9,29.94,NNE,22,0.0,-999.0,81,-99.99,,,0.00,Acu-Link.com,2013-05-20 13:26:00,
2013-05-20 09:42:00,74.1,69.3,29.93,ESE,112,0.0,-999.0,85,-99.99,,,0.00,Acu-Link.com,2013-05-20 13:42:00,
2013-05-20 09:57:00,74.3,69.1,29.95,West,270,1.7,-999.0,84,-99.99,,,0.00,Acu-Link.com,2013-05-20 13:57:00,
2013-05-20 10:12:00,76.8,70.5,29.93,SE,135,2.2,-999.0,81,-99.99,,,0.00,Acu-Link.com,2013-05-20 14:12:00,
2013-05-20 10:27:00,74.8,69.3,29.93,West,270,1.1,-999.0,83,-99.99,,,0.00,Acu-Link.com,2013-05-20 14:27:00,
2013-05-20 10:42:00,76.3,70.4,29.92,SSE,157,1.1,-999.0,82,-99.99,,,0.00,Acu-Link.com,2013-05-20 14:42:00,
2013-05-20 10:57:00,77.2,70.9,29.92,North,0,2.7,-999.0,81,-99.99,,,0.00,Acu-Link.com,2013-05-20 14:57:00,
2013-05-20 11:12:00,78.8,71.3,29.92,NE,45,2.7,-999.0,78,-99.99,,,0.00,Acu-Link.com,2013-05-20 15:12:00,
2013-05-20 11:27:00,77.5,70.8,29.91,SSE,157,1.7,-999.0,80,-99.99,,,0.00,Acu-Link.com,2013-05-20 15:27:00,
2013-05-20 11:42:00,79.7,72.2,29.91,NE,45,1.7,-999.0,78,-99.99,,,0.00,Acu-Link.com,2013-05-20 15:42:00,
2013-05-20 11:57:00,80.1,72.6,29.91,East,90,2.7,-999.0,78,-99.99,,,0.00,Acu-Link.com,2013-05-20 15:57:00,
2013-05-20 12:13:00,78.6,71.5,29.91,SSE,157,5.3,-999.0,79,-99.99,,,0.00,Acu-Link.com,2013-05-20 16:13:00,
2013-05-20 12:28:00,79.3,72.2,29.90,West,270,1.1,-999.0,79,-99.99,,,0.00,Acu-Link.com,2013-05-20 16:28:00,
2013-05-20 12:43:00,78.8,71.3,29.90,SW,225,0.0,-999.0,78,-99.99,,,0.00,Acu-Link.com,2013-05-20 16:43:00,
2013-05-20 12:58:00,80.6,71.9,29.89,NE,45,4.2,-999.0,75,-99.99,,,0.00,Acu-Link.com,2013-05-20 16:58:00,
2013-05-20 13:13:00,81.0,72.3,29.89,East,90,2.7,-999.0,75,-99.99,,,0.00,Acu-Link.com,2013-05-20 17:13:00,
2013-05-20 13:28:00,80.4,72.9,29.89,WNW,292,4.2,-999.0,78,-99.99,,,0.00,Acu-Link.com,2013-05-20 17:28:00,
2013-05-20 13:43:00,79.3,71.1,29.89,NE,45,2.2,-999.0,76,-99.99,,,0.00,Acu-Link.com,2013-05-20 17:43:00,
2013-05-20 13:58:00,80.8,71.7,29.88,ESE,112,1.7,-999.0,74,-99.99,,,0.00,Acu-Link.com,2013-05-20 17:58:00,
2013-05-20 14:13:00,80.8,71.7,29.87,ESE,112,4.2,-999.0,74,-99.99,,,0.00,Acu-Link.com,2013-05-20 18:13:00,
2013-05-20 14:29:00,82.6,71.4,29.87,ESE,112,4.7,-999.0,69,-99.99,,,0.00,Acu-Link.com,2013-05-20 18:29:00,
2013-05-20 14:44:00,81.9,72.0,29.87,WSW,247,1.7,-999.0,72,-99.99,,,0.00,Acu-Link.com,2013-05-20 18:44:00,
2013-05-20 14:59:00,83.5,73.1,29.86,ESE,112,4.7,-999.0,71,-99.99,,,0.00,Acu-Link.com,2013-05-20 18:59:00,
2013-05-20 15:14:00,83.1,72.3,29.87,ESE,112,2.2,-999.0,70,-99.99,,,0.00,Acu-Link.com,2013-05-20 19:14:00,
2013-05-20 15:29:00,82.6,70.9,29.85,ENE,67,4.7,-999.0,68,-99.99,,,0.00,Acu-Link.com,2013-05-20 19:29:00,
2013-05-20 15:44:00,81.0,71.1,29.86,ESE,112,3.2,-999.0,72,-99.99,,,0.00,Acu-Link.com,2013-05-20 19:44:00,
2013-05-20 16:00:00,80.8,70.9,29.85,SW,225,2.7,-999.0,72,-99.99,,,0.00,Acu-Link.com,2013-05-20 20:00:00,
2013-05-20 16:15:00,81.9,72.0,29.85,South,180,2.2,-999.0,72,-99.99,,,0.00,Acu-Link.com,2013-05-20 20:15:00,
2013-05-20 16:30:00,81.9,71.6,29.83,SSE,157,3.2,-999.0,71,-99.99,,,0.00,Acu-Link.com,2013-05-20 20:30:00,
2013-05-20 16:45:00,82.6,72.2,29.83,SSW,202,2.7,-999.0,71,-99.99,,,0.00,Acu-Link.com,2013-05-20 20:45:00,
2013-05-20 17:00:00,80.4,70.1,29.83,ESE,112,4.2,-999.0,71,-99.99,,,0.00,Acu-Link.com,2013-05-20 21:00:00,
2013-05-20 17:15:00,80.6,70.7,29.84,ESE,112,2.7,-999.0,72,-99.99,,,0.00,Acu-Link.com,2013-05-20 21:15:00,
2013-05-20 17:30:00,82.4,72.0,29.83,SSE,157,2.2,-999.0,71,-99.99,,,0.00,Acu-Link.com,2013-05-20 21:30:00,
2013-05-20 17:45:00,81.3,71.0,29.84,ESE,112,2.7,-999.0,71,-99.99,,,0.00,Acu-Link.com,2013-05-20 21:45:00,
2013-05-20 18:00:00,81.5,71.6,29.83,ESE,112,4.7,-999.0,72,-99.99,,,0.00,Acu-Link.com,2013-05-20 22:00:00,
2013-05-20 18:16:00,81.1,71.2,29.83,SSE,157,2.2,-999.0,72,-99.99,,,0.00,Acu-Link.com,2013-05-20 22:16:00,
2013-05-20 18:31:00,82.4,71.6,29.83,ESE,112,3.7,-999.0,70,-99.99,,,0.00,Acu-Link.com,2013-05-20 22:31:00,
2013-05-20 18:46:00,81.3,71.0,29.82,NE,45,1.7,-999.0,71,-99.99,,,0.00,Acu-Link.com,2013-05-20 22:46:00,
2013-05-20 19:01:00,80.8,71.3,29.83,East,90,2.7,-999.0,73,-99.99,,,0.00,Acu-Link.com,2013-05-20 23:01:00,
2013-05-20 19:16:00,79.5,70.9,29.83,SSE,157,1.1,-999.0,75,-99.99,,,0.00,Acu-Link.com,2013-05-20 23:16:00,
2013-05-20 19:31:00,78.3,70.5,29.82,SSE,157,2.7,-999.0,77,-99.99,,,0.00,Acu-Link.com,2013-05-20 23:31:00,
2013-05-20 19:46:00,77.5,70.5,29.84,South,180,1.7,-999.0,79,-99.99,,,0.00,Acu-Link.com,2013-05-20 23:46:00,
2013-05-20 20:01:00,76.3,69.7,29.83,South,180,0.0,-999.0,80,-99.99,,,0.00,Acu-Link.com,2013-05-21 00:01:00,
2013-05-20 20:16:00,75.2,69.3,29.83,ESE,112,0.0,-999.0,82,-99.99,,,0.00,Acu-Link.com,2013-05-21 00:16:00,
2013-05-20 20:32:00,74.1,68.9,29.84,South,180,0.0,-999.0,84,-99.99,,,0.00,Acu-Link.com,2013-05-21 00:32:00,
2013-05-20 20:47:00,73.0,68.6,29.83,SSE,157,0.0,-999.0,86,-99.99,,,0.00,Acu-Link.com,2013-05-21 00:47:00,
2013-05-20 21:02:00,72.1,68.3,29.83,SE,135,0.0,-999.0,88,-99.99,,,0.00,Acu-Link.com,2013-05-21 01:02:00,
2013-05-20 21:17:00,71.6,68.2,29.83,SSE,157,0.0,-999.0,89,-99.99,,,0.00,Acu-Link.com,2013-05-21 01:17:00,
2013-05-20 21:32:00,71.1,68.0,29.82,SSE,157,0.0,-999.0,90,-99.99,,,0.00,Acu-Link.com,2013-05-21 01:32:00,
2013-05-20 21:47:00,70.7,67.9,29.83,SW,225,0.0,-999.0,91,-99.99,,,0.00,Acu-Link.com,2013-05-21 01:47:00,
2013-05-20 22:02:00,70.3,67.9,29.83,WSW,247,0.0,-999.0,92,-99.99,,,0.00,Acu-Link.com,2013-05-21 02:02:00,
2013-05-20 22:17:00,69.8,67.7,29.84,West,270,0.0,-999.0,93,-99.99,,,0.00,Acu-Link.com,2013-05-21 02:17:00,
2013-05-20 22:32:00,69.3,67.5,29.84,North,0,0.0,-999.0,94,-99.99,,,0.00,Acu-Link.com,2013-05-21 02:32:00,
2013-05-20 22:47:00,68.9,67.7,29.84,West,270,0.0,-999.0,96,-99.99,,,0.00,Acu-Link.com,2013-05-21 02:47:00,
2013-05-20 23:03:00,68.5,67.3,29.85,West,270,0.0,-999.0,96,-99.99,,,0.00,Acu-Link.com,2013-05-21 03:03:00,
2013-05-20 23:18:00,68.4,67.5,29.84,SSW,202,0.0,-999.0,97,-99.99,,,0.00,Acu-Link.com,2013-05-21 03:18:00,
2013-05-20 23:33:00,68.0,67.4,29.84,East,90,0.0,-999.0,98,-99.99,,,0.00,Acu-Link.com,2013-05-21 03:33:00,
2013-05-20 23:48:00,67.8,67.5,29.83,NE,45,0.0,-999.0,99,-99.99,,,0.00,Acu-Link.com,2013-05-21 03:48:00,